sensor_id;sensor_type;location;lat;lon;timestamp;pressure;altitude;pressure_sealevel;temperature;humidity
45275;BME280;31019;43.780;25.948;2022-07-09T00:00:40;100796.91;;;17.50;100.00
45275;BME280;31019;43.780;25.948;2022-07-09T00:03:08;100793.03;;;17.41;100.00
45275;BME280;31019;43.780;25.948;2022-07-09T00:05:36;100793.84;;;17.42;100.00
45275;BME280;31019;43.780;25.948;2022-07-09T00:08:03;100798.41;;;17.02;100.00
45275;BME280;31019;43.780;25.948;2022-07-09T00:10:31;100797.78;;;16.95;100.00
45275;BME280;31019;43.780;25.948;2022-07-09T00:13:00;100797.41;;;17.08;100.00
45275;BME280;31019;43.780;25.948;2022-07-09T00:15:27;100801.59;;;16.82;100.00
45275;BME280;31019;43.780;25.948;2022-07-09T00:17:54;100796.22;;;16.99;100.00
45275;BME280;31019;43.780;25.948;2022-07-09T00:20:21;100791.88;;;17.15;100.00
45275;BME280;31019;43.780;25.948;2022-07-09T00:22:48;100796.41;;;16.92;100.00
45275;BME280;31019;43.780;25.948;2022-07-09T00:25:18;100790.03;;;16.99;100.00
45275;BME280;31019;43.780;25.948;2022-07-09T00:27:44;100791.81;;;17.10;100.00
45275;BME280;31019;43.780;25.948;2022-07-09T00:30:14;100792.16;;;16.97;100.00
45275;BME280;31019;43.780;25.948;2022-07-09T00:32:43;100792.94;;;17.14;100.00
45275;BME280;31019;43.780;25.948;2022-07-09T00:35:09;100798.91;;;16.82;100.00
45275;BME280;31019;43.780;25.948;2022-07-09T00:37:37;100800.44;;;16.44;100.00
45275;BME280;31019;43.780;25.948;2022-07-09T00:40:05;100802.53;;;16.25;100.00
45275;BME280;31019;43.780;25.948;2022-07-09T00:42:32;100801.31;;;16.33;100.00
45275;BME280;31019;43.780;25.948;2022-07-09T00:44:59;100799.38;;;16.00;100.00
45275;BME280;31019;43.780;25.948;2022-07-09T00:47:28;100804.44;;;16.76;100.00
45275;BME280;31019;43.780;25.948;2022-07-09T00:49:56;100807.88;;;16.25;100.00
45275;BME280;31019;43.780;25.948;2022-07-09T00:52:23;100799.44;;;16.34;100.00
45275;BME280;31019;43.780;25.948;2022-07-09T00:54:50;100798.00;;;16.60;100.00
45275;BME280;31019;43.780;25.948;2022-07-09T00:57:18;100802.31;;;15.98;100.00
45275;BME280;31019;43.780;25.948;2022-07-09T00:59:48;100805.72;;;16.73;100.00
45275;BME280;31019;43.780;25.948;2022-07-09T01:02:18;100798.88;;;16.48;100.00
45275;BME280;31019;43.780;25.948;2022-07-09T01:04:46;100794.75;;;15.95;100.00
45275;BME280;31019;43.780;25.948;2022-07-09T01:07:13;100800.06;;;16.24;100.00
45275;BME280;31019;43.780;25.948;2022-07-09T01:09:40;100805.78;;;16.44;100.00
45275;BME280;31019;43.780;25.948;2022-07-09T01:12:08;100808.16;;;16.58;100.00
45275;BME280;31019;43.780;25.948;2022-07-09T01:14:35;100799.44;;;16.17;100.00
45275;BME280;31019;43.780;25.948;2022-07-09T01:17:06;100791.75;;;16.37;100.00
45275;BME280;31019;43.780;25.948;2022-07-09T01:19:34;100798.09;;;16.65;100.00
45275;BME280;31019;43.780;25.948;2022-07-09T01:22:03;100795.31;;;16.60;100.00
45275;BME280;31019;43.780;25.948;2022-07-09T01:24:30;100799.78;;;16.54;100.00
45275;BME280;31019;43.780;25.948;2022-07-09T01:26:57;100795.78;;;16.40;100.00
45275;BME280;31019;43.780;25.948;2022-07-09T01:29:24;100804.25;;;16.32;100.00
45275;BME280;31019;43.780;25.948;2022-07-09T01:31:51;100799.44;;;16.34;100.00
45275;BME280;31019;43.780;25.948;2022-07-09T01:34:17;100806.44;;;15.89;100.00
45275;BME280;31019;43.780;25.948;2022-07-09T01:36:44;100809.00;;;15.84;100.00
45275;BME280;31019;43.780;25.948;2022-07-09T01:39:14;100800.81;;;16.36;100.00
45275;BME280;31019;43.780;25.948;2022-07-09T01:41:41;100791.75;;;16.37;100.00
45275;BME280;31019;43.780;25.948;2022-07-09T01:44:09;100801.28;;;15.88;100.00
45275;BME280;31019;43.780;25.948;2022-07-09T01:46:36;100798.94;;;16.20;100.00
45275;BME280;31019;43.780;25.948;2022-07-09T01:49:03;100799.59;;;16.27;100.00
45275;BME280;31019;43.780;25.948;2022-07-09T01:51:33;100797.03;;;16.03;100.00
45275;BME280;31019;43.780;25.948;2022-07-09T01:54:00;100796.25;;;15.91;100.00
45275;BME280;31019;43.780;25.948;2022-07-09T01:56:28;100799.81;;;15.80;100.00
45275;BME280;31019;43.780;25.948;2022-07-09T01:58:55;100799.84;;;15.56;100.00
45275;BME280;31019;43.780;25.948;2022-07-09T02:01:22;100802.81;;;16.12;100.00
45275;BME280;31019;43.780;25.948;2022-07-09T02:03:49;100794.97;;;15.94;100.00
45275;BME280;31019;43.780;25.948;2022-07-09T02:06:15;100803.00;;;15.94;100.00
45275;BME280;31019;43.780;25.948;2022-07-09T02:08:42;100804.19;;;16.15;100.00
45275;BME280;31019;43.780;25.948;2022-07-09T02:11:09;100797.56;;;16.17;100.00
45275;BME280;31019;43.780;25.948;2022-07-09T02:13:38;100792.16;;;16.00;100.00
45275;BME280;31019;43.780;25.948;2022-07-09T02:16:05;100798.84;;;16.15;100.00
45275;BME280;31019;43.780;25.948;2022-07-09T02:18:34;100803.19;;;15.75;100.00
45275;BME280;31019;43.780;25.948;2022-07-09T02:21:01;100800.66;;;15.57;100.00
45275;BME280;31019;43.780;25.948;2022-07-09T02:23:30;100798.09;;;15.74;100.00
45275;BME280;31019;43.780;25.948;2022-07-09T02:25:57;100796.53;;;16.07;100.00
45275;BME280;31019;43.780;25.948;2022-07-09T02:28:24;100794.13;;;16.05;100.00
45275;BME280;31019;43.780;25.948;2022-07-09T02:30:52;100798.47;;;15.54;100.00
45275;BME280;31019;43.780;25.948;2022-07-09T02:33:21;100801.88;;;15.90;100.00
45275;BME280;31019;43.780;25.948;2022-07-09T02:35:48;100803.69;;;16.01;100.00
45275;BME280;31019;43.780;25.948;2022-07-09T02:38:15;100801.16;;;16.23;100.00
45275;BME280;31019;43.780;25.948;2022-07-09T02:40:42;100801.88;;;15.90;100.00
45275;BME280;31019;43.780;25.948;2022-07-09T02:43:08;100801.31;;;16.16;100.00
45275;BME280;31019;43.780;25.948;2022-07-09T02:45:35;100805.44;;;16.24;100.00
45275;BME280;31019;43.780;25.948;2022-07-09T02:48:04;100813.25;;;15.68;100.00
45275;BME280;31019;43.780;25.948;2022-07-09T02:50:37;100802.53;;;15.68;100.00
45275;BME280;31019;43.780;25.948;2022-07-09T02:53:04;100811.47;;;15.74;100.00
45275;BME280;31019;43.780;25.948;2022-07-09T02:55:31;100820.28;;;15.86;100.00
45275;BME280;31019;43.780;25.948;2022-07-09T02:57:57;100830.53;;;15.89;100.00
45275;BME280;31019;43.780;25.948;2022-07-09T03:00:25;100821.81;;;16.11;100.00
45275;BME280;31019;43.780;25.948;2022-07-09T03:02:53;100830.66;;;16.11;100.00
45275;BME280;31019;43.780;25.948;2022-07-09T03:05:21;100829.31;;;15.45;100.00
45275;BME280;31019;43.780;25.948;2022-07-09T03:07:48;100836.25;;;15.81;100.00
45275;BME280;31019;43.780;25.948;2022-07-09T03:10:16;100848.09;;;15.85;100.00
45275;BME280;31019;43.780;25.948;2022-07-09T03:12:43;100829.38;;;14.98;100.00
45275;BME280;31019;43.780;25.948;2022-07-09T03:15:10;100838.00;;;15.75;100.00
45275;BME280;31019;43.780;25.948;2022-07-09T03:17:38;100842.69;;;15.56;100.00
45275;BME280;31019;43.780;25.948;2022-07-09T03:20:06;100839.72;;;16.22;100.00
45275;BME280;31019;43.780;25.948;2022-07-09T03:22:36;100849.06;;;16.36;100.00
45275;BME280;31019;43.780;25.948;2022-07-09T03:25:10;100850.34;;;16.62;100.00
45275;BME280;31019;43.780;25.948;2022-07-09T03:27:39;100844.72;;;16.64;100.00
45275;BME280;31019;43.780;25.948;2022-07-09T03:30:11;100851.69;;;16.48;100.00
45275;BME280;31019;43.780;25.948;2022-07-09T03:32:38;100847.41;;;16.18;100.00
45275;BME280;31019;43.780;25.948;2022-07-09T03:35:06;100846.56;;;16.01;100.00
45275;BME280;31019;43.780;25.948;2022-07-09T03:37:36;100855.13;;;16.60;100.00
45275;BME280;31019;43.780;25.948;2022-07-09T03:40:04;100860.75;;;16.76;100.00
45275;BME280;31019;43.780;25.948;2022-07-09T03:42:40;100860.94;;;16.86;100.00
45275;BME280;31019;43.780;25.948;2022-07-09T03:45:08;100866.75;;;16.66;100.00
45275;BME280;31019;43.780;25.948;2022-07-09T03:47:37;100867.84;;;16.99;100.00
45275;BME280;31019;43.780;25.948;2022-07-09T03:50:04;100868.56;;;17.11;100.00
45275;BME280;31019;43.780;25.948;2022-07-09T03:52:32;100875.75;;;16.88;100.00
45275;BME280;31019;43.780;25.948;2022-07-09T03:55:05;100871.41;;;16.87;100.00
45275;BME280;31019;43.780;25.948;2022-07-09T03:57:32;100869.09;;;17.30;100.00
45275;BME280;31019;43.780;25.948;2022-07-09T04:00:06;100873.81;;;17.39;100.00
45275;BME280;31019;43.780;25.948;2022-07-09T04:02:34;100875.50;;;17.07;100.00
45275;BME280;31019;43.780;25.948;2022-07-09T04:05:01;100869.09;;;17.47;100.00
45275;BME280;31019;43.780;25.948;2022-07-09T04:07:28;100868.09;;;17.14;100.00
45275;BME280;31019;43.780;25.948;2022-07-09T04:09:56;100868.53;;;17.67;100.00
45275;BME280;31019;43.780;25.948;2022-07-09T04:12:25;100860.59;;;17.55;100.00
45275;BME280;31019;43.780;25.948;2022-07-09T04:14:52;100859.75;;;17.93;100.00
45275;BME280;31019;43.780;25.948;2022-07-09T04:17:20;100859.38;;;18.06;100.00
45275;BME280;31019;43.780;25.948;2022-07-09T04:19:47;100853.13;;;18.01;100.00
45275;BME280;31019;43.780;25.948;2022-07-09T04:22:13;100860.44;;;18.05;100.00
45275;BME280;31019;43.780;25.948;2022-07-09T04:24:42;100855.91;;;18.11;100.00
45275;BME280;31019;43.780;25.948;2022-07-09T04:27:09;100850.41;;;18.23;100.00
45275;BME280;31019;43.780;25.948;2022-07-09T04:29:38;100862.56;;;18.30;100.00
45275;BME280;31019;43.780;25.948;2022-07-09T04:32:07;100849.22;;;18.68;100.00
45275;BME280;31019;43.780;25.948;2022-07-09T04:34:41;100862.56;;;18.58;100.00
45275;BME280;31019;43.780;25.948;2022-07-09T04:37:08;100860.19;;;18.61;100.00
45275;BME280;31019;43.780;25.948;2022-07-09T04:39:36;100861.38;;;18.43;100.00
45275;BME280;31019;43.780;25.948;2022-07-09T04:42:03;100867.59;;;18.76;100.00
45275;BME280;31019;43.780;25.948;2022-07-09T04:44:30;100864.19;;;18.91;100.00
45275;BME280;31019;43.780;25.948;2022-07-09T04:47:02;100864.28;;;19.01;100.00
45275;BME280;31019;43.780;25.948;2022-07-09T04:49:29;100869.47;;;18.75;100.00
45275;BME280;31019;43.780;25.948;2022-07-09T04:51:56;100871.22;;;18.92;100.00
45275;BME280;31019;43.780;25.948;2022-07-09T04:54:23;100864.97;;;19.18;100.00
45275;BME280;31019;43.780;25.948;2022-07-09T04:56:50;100876.63;;;18.97;100.00
45275;BME280;31019;43.780;25.948;2022-07-09T04:59:17;100880.66;;;19.32;100.00
45275;BME280;31019;43.780;25.948;2022-07-09T05:01:45;100878.94;;;19.15;100.00
45275;BME280;31019;43.780;25.948;2022-07-09T05:04:15;100871.63;;;19.58;100.00
45275;BME280;31019;43.780;25.948;2022-07-09T05:06:42;100867.75;;;19.86;100.00
45275;BME280;31019;43.780;25.948;2022-07-09T05:09:09;100865.31;;;19.85;100.00
45275;BME280;31019;43.780;25.948;2022-07-09T05:11:36;100864.38;;;19.59;100.00
45275;BME280;31019;43.780;25.948;2022-07-09T05:14:03;100863.97;;;19.87;100.00
45275;BME280;31019;43.780;25.948;2022-07-09T05:16:30;100863.25;;;20.18;100.00
45275;BME280;31019;43.780;25.948;2022-07-09T05:18:59;100866.81;;;20.44;100.00
45275;BME280;31019;43.780;25.948;2022-07-09T05:21:29;100863.34;;;20.74;100.00
45275;BME280;31019;43.780;25.948;2022-07-09T05:23:56;100861.97;;;21.02;100.00
45275;BME280;31019;43.780;25.948;2022-07-09T05:26:23;100861.94;;;21.27;100.00
45275;BME280;31019;43.780;25.948;2022-07-09T05:28:50;100859.38;;;21.72;100.00
45275;BME280;31019;43.780;25.948;2022-07-09T05:31:17;100855.06;;;21.71;100.00
45275;BME280;31019;43.780;25.948;2022-07-09T05:33:44;100839.75;;;22.84;100.00
45275;BME280;31019;43.780;25.948;2022-07-09T05:36:11;100852.91;;;23.25;100.00
45275;BME280;31019;43.780;25.948;2022-07-09T05:38:39;100851.47;;;23.57;100.00
45275;BME280;31019;43.780;25.948;2022-07-09T05:41:06;100844.84;;;23.87;100.00
45275;BME280;31019;43.780;25.948;2022-07-09T05:43:35;100850.47;;;23.48;100.00
45275;BME280;31019;43.780;25.948;2022-07-09T05:46:03;100848.06;;;23.22;100.00
45275;BME280;31019;43.780;25.948;2022-07-09T05:48:32;100842.91;;;23.45;100.00
45275;BME280;31019;43.780;25.948;2022-07-09T05:50:59;100848.59;;;23.48;100.00
45275;BME280;31019;43.780;25.948;2022-07-09T05:53:26;100856.81;;;23.62;100.00
45275;BME280;31019;43.780;25.948;2022-07-09T05:55:54;100845.97;;;23.62;100.00
45275;BME280;31019;43.780;25.948;2022-07-09T05:58:25;100852.03;;;23.54;100.00
45275;BME280;31019;43.780;25.948;2022-07-09T06:00:52;100845.75;;;23.83;100.00
45275;BME280;31019;43.780;25.948;2022-07-09T06:03:19;100843.47;;;23.90;100.00
45275;BME280;31019;43.780;25.948;2022-07-09T06:05:47;100847.22;;;23.94;100.00
45275;BME280;31019;43.780;25.948;2022-07-09T06:08:15;100850.31;;;24.25;100.00
45275;BME280;31019;43.780;25.948;2022-07-09T06:10:43;100848.19;;;24.22;100.00
45275;BME280;31019;43.780;25.948;2022-07-09T06:13:11;100860.03;;;25.10;100.00
45275;BME280;31019;43.780;25.948;2022-07-09T06:15:39;100848.63;;;24.81;100.00
45275;BME280;31019;43.780;25.948;2022-07-09T06:18:06;100841.84;;;24.64;100.00
45275;BME280;31019;43.780;25.948;2022-07-09T06:20:33;100848.69;;;24.24;100.00
45275;BME280;31019;43.780;25.948;2022-07-09T06:23:00;100852.22;;;24.25;100.00
45275;BME280;31019;43.780;25.948;2022-07-09T06:25:26;100853.75;;;24.12;100.00
45275;BME280;31019;43.780;25.948;2022-07-09T06:27:53;100848.16;;;23.84;100.00
45275;BME280;31019;43.780;25.948;2022-07-09T06:30:22;100838.47;;;24.35;100.00
45275;BME280;31019;43.780;25.948;2022-07-09T06:32:49;100849.72;;;24.28;100.00
45275;BME280;31019;43.780;25.948;2022-07-09T06:35:17;100845.09;;;24.48;100.00
45275;BME280;31019;43.780;25.948;2022-07-09T06:37:45;100834.69;;;24.68;100.00
45275;BME280;31019;43.780;25.948;2022-07-09T06:40:12;100841.69;;;24.88;100.00
45275;BME280;31019;43.780;25.948;2022-07-09T06:42:39;100832.09;;;24.63;100.00
45275;BME280;31019;43.780;25.948;2022-07-09T06:45:07;100841.81;;;24.97;100.00
45275;BME280;31019;43.780;25.948;2022-07-09T06:47:36;100842.91;;;24.96;100.00
45275;BME280;31019;43.780;25.948;2022-07-09T06:50:04;100838.59;;;24.62;100.00
45275;BME280;31019;43.780;25.948;2022-07-09T06:52:31;100836.66;;;24.82;100.00
45275;BME280;31019;43.780;25.948;2022-07-09T06:54:58;100840.47;;;24.81;100.00
45275;BME280;31019;43.780;25.948;2022-07-09T06:57:25;100834.66;;;24.87;100.00
45275;BME280;31019;43.780;25.948;2022-07-09T06:59:52;100829.53;;;24.86;100.00
45275;BME280;31019;43.780;25.948;2022-07-09T07:02:19;100829.75;;;24.57;100.00
45275;BME280;31019;43.780;25.948;2022-07-09T07:04:47;100833.75;;;24.78;100.00
45275;BME280;31019;43.780;25.948;2022-07-09T07:07:14;100828.84;;;24.61;100.00
45275;BME280;31019;43.780;25.948;2022-07-09T07:09:42;100831.50;;;24.66;100.00
45275;BME280;31019;43.780;25.948;2022-07-09T07:12:10;100824.03;;;24.39;100.00
45275;BME280;31019;43.780;25.948;2022-07-09T07:14:36;100821.97;;;24.50;100.00
45275;BME280;31019;43.780;25.948;2022-07-09T07:17:04;100832.34;;;24.95;100.00
45275;BME280;31019;43.780;25.948;2022-07-09T07:19:31;100840.06;;;25.34;100.00
45275;BME280;31019;43.780;25.948;2022-07-09T07:21:59;100824.97;;;25.28;100.00
45275;BME280;31019;43.780;25.948;2022-07-09T07:24:26;100829.47;;;25.88;97.17
45275;BME280;31019;43.780;25.948;2022-07-09T07:26:55;100828.31;;;26.02;87.53
45275;BME280;31019;43.780;25.948;2022-07-09T07:29:23;100833.66;;;26.30;94.69
45275;BME280;31019;43.780;25.948;2022-07-09T07:31:51;100840.84;;;26.48;93.42
45275;BME280;31019;43.780;25.948;2022-07-09T07:34:19;100833.59;;;26.21;100.00
45275;BME280;31019;43.780;25.948;2022-07-09T07:36:49;100827.84;;;26.45;77.07
45275;BME280;31019;43.780;25.948;2022-07-09T07:39:18;100832.50;;;26.67;89.17
45275;BME280;31019;43.780;25.948;2022-07-09T07:41:47;100828.19;;;26.98;82.23
45275;BME280;31019;43.780;25.948;2022-07-09T07:44:15;100826.97;;;26.81;76.07
45275;BME280;31019;43.780;25.948;2022-07-09T07:46:43;100829.69;;;27.12;72.67
45275;BME280;31019;43.780;25.948;2022-07-09T07:49:09;100830.06;;;27.20;76.08
45275;BME280;31019;43.780;25.948;2022-07-09T07:51:36;100830.84;;;27.20;73.87
45275;BME280;31019;43.780;25.948;2022-07-09T07:54:03;100828.03;;;27.34;82.57
45275;BME280;31019;43.780;25.948;2022-07-09T07:56:32;100828.84;;;27.43;76.46
45275;BME280;31019;43.780;25.948;2022-07-09T07:59:02;100828.19;;;27.37;77.33
45275;BME280;31019;43.780;25.948;2022-07-09T08:01:29;100824.19;;;27.44;76.24
45275;BME280;31019;43.780;25.948;2022-07-09T08:03:55;100824.38;;;27.56;75.73
45275;BME280;31019;43.780;25.948;2022-07-09T08:06:22;100827.56;;;27.40;74.97
45275;BME280;31019;43.780;25.948;2022-07-09T08:08:49;100829.44;;;27.23;81.50
45275;BME280;31019;43.780;25.948;2022-07-09T08:11:17;100827.06;;;27.30;72.24
45275;BME280;31019;43.780;25.948;2022-07-09T08:13:45;100826.00;;;27.66;68.34
45275;BME280;31019;43.780;25.948;2022-07-09T08:16:12;100817.97;;;27.52;78.72
45275;BME280;31019;43.780;25.948;2022-07-09T08:18:39;100813.09;;;27.31;79.38
45275;BME280;31019;43.780;25.948;2022-07-09T08:21:07;100811.72;;;27.51;76.57
45275;BME280;31019;43.780;25.948;2022-07-09T08:23:34;100815.25;;;27.60;68.10
45275;BME280;31019;43.780;25.948;2022-07-09T08:26:17;100816.63;;;28.15;71.39
45275;BME280;31019;43.780;25.948;2022-07-09T08:28:46;100805.84;;;28.36;61.84
45275;BME280;31019;43.780;25.948;2022-07-09T08:31:13;100802.16;;;28.06;57.93
45275;BME280;31019;43.780;25.948;2022-07-09T08:33:40;100813.56;;;28.08;65.08
45275;BME280;31019;43.780;25.948;2022-07-09T08:36:07;100814.19;;;28.31;65.85
45275;BME280;31019;43.780;25.948;2022-07-09T08:38:34;100808.56;;;27.93;55.73
45275;BME280;31019;43.780;25.948;2022-07-09T08:41:03;100803.91;;;28.37;62.41
45275;BME280;31019;43.780;25.948;2022-07-09T08:43:32;100815.78;;;28.49;59.02
45275;BME280;31019;43.780;25.948;2022-07-09T08:46:01;100813.63;;;28.81;56.46
45275;BME280;31019;43.780;25.948;2022-07-09T08:48:28;100803.84;;;28.71;57.90
45275;BME280;31019;43.780;25.948;2022-07-09T08:50:57;100800.03;;;28.55;64.62
45275;BME280;31019;43.780;25.948;2022-07-09T08:53:25;100804.63;;;28.81;64.30
45275;BME280;31019;43.780;25.948;2022-07-09T08:55:55;100807.03;;;28.82;61.26
45275;BME280;31019;43.780;25.948;2022-07-09T08:58:22;100811.63;;;28.52;59.31
45275;BME280;31019;43.780;25.948;2022-07-09T09:00:49;100807.44;;;28.54;58.08
45275;BME280;31019;43.780;25.948;2022-07-09T09:03:19;100808.31;;;28.85;64.11
45275;BME280;31019;43.780;25.948;2022-07-09T09:06:00;100798.53;;;28.75;57.49
45275;BME280;31019;43.780;25.948;2022-07-09T09:08:28;100789.91;;;28.56;59.67
45275;BME280;31019;43.780;25.948;2022-07-09T09:10:59;100795.28;;;28.90;63.99
45275;BME280;31019;43.780;25.948;2022-07-09T09:13:26;100793.81;;;29.31;58.09
45275;BME280;31019;43.780;25.948;2022-07-09T09:16:02;100799.19;;;29.49;58.27
45275;BME280;31019;43.780;25.948;2022-07-09T09:18:31;100799.81;;;29.25;54.84
45275;BME280;31019;43.780;25.948;2022-07-09T09:21:05;100800.81;;;29.41;52.63
45275;BME280;31019;43.780;25.948;2022-07-09T09:23:42;100787.63;;;29.73;55.23
45275;BME280;31019;43.780;25.948;2022-07-09T09:26:10;100794.69;;;29.23;60.93
45275;BME280;31019;43.780;25.948;2022-07-09T09:28:51;100796.50;;;29.40;54.23
45275;BME280;31019;43.780;25.948;2022-07-09T09:31:23;100793.63;;;29.66;52.13
45275;BME280;31019;43.780;25.948;2022-07-09T09:33:53;100790.53;;;29.67;57.70
45275;BME280;31019;43.780;25.948;2022-07-09T09:36:31;100787.50;;;29.69;54.82
45275;BME280;31019;43.780;25.948;2022-07-09T09:39:14;100778.44;;;30.10;49.19
45275;BME280;31019;43.780;25.948;2022-07-09T09:41:44;100784.09;;;29.13;51.90
45275;BME280;31019;43.780;25.948;2022-07-09T09:44:13;100774.44;;;29.45;46.74
45275;BME280;31019;43.780;25.948;2022-07-09T09:46:41;100775.75;;;29.09;53.03
45275;BME280;31019;43.780;25.948;2022-07-09T09:49:11;100774.28;;;29.12;50.45
45275;BME280;31019;43.780;25.948;2022-07-09T09:51:46;100773.81;;;29.39;50.85
45275;BME280;31019;43.780;25.948;2022-07-09T09:54:18;100779.50;;;29.55;51.59
45275;BME280;31019;43.780;25.948;2022-07-09T09:56:47;100778.38;;;29.77;56.52
45275;BME280;31019;43.780;25.948;2022-07-09T09:59:14;100764.63;;;30.07;52.08
45275;BME280;31019;43.780;25.948;2022-07-09T10:01:42;100760.22;;;29.94;56.19
45275;BME280;31019;43.780;25.948;2022-07-09T10:04:12;100764.25;;;29.75;50.76
45275;BME280;31019;43.780;25.948;2022-07-09T10:06:42;100758.84;;;30.54;47.83
45275;BME280;31019;43.780;25.948;2022-07-09T10:09:11;100756.22;;;29.91;47.19
45275;BME280;31019;43.780;25.948;2022-07-09T10:11:43;100759.25;;;30.10;51.26
45275;BME280;31019;43.780;25.948;2022-07-09T10:14:28;100756.84;;;29.76;52.33
45275;BME280;31019;43.780;25.948;2022-07-09T10:16:56;100747.59;;;30.34;45.02
45275;BME280;31019;43.780;25.948;2022-07-09T10:19:29;100745.47;;;30.19;44.40
45275;BME280;31019;43.780;25.948;2022-07-09T10:21:59;100740.97;;;30.23;54.59
45275;BME280;31019;43.780;25.948;2022-07-09T10:24:29;100747.81;;;29.96;51.65
45275;BME280;31019;43.780;25.948;2022-07-09T10:27:03;100746.78;;;30.22;45.92
45275;BME280;31019;43.780;25.948;2022-07-09T10:29:32;100737.81;;;30.46;46.16
45275;BME280;31019;43.780;25.948;2022-07-09T10:31:59;100730.16;;;30.39;43.57
45275;BME280;31019;43.780;25.948;2022-07-09T10:34:43;100727.41;;;30.27;53.47
45275;BME280;31019;43.780;25.948;2022-07-09T10:37:16;100730.75;;;30.45;45.71
45275;BME280;31019;43.780;25.948;2022-07-09T10:39:53;100727.41;;;30.27;43.68
45275;BME280;31019;43.780;25.948;2022-07-09T10:42:22;100732.47;;;30.16;51.45
45275;BME280;31019;43.780;25.948;2022-07-09T10:44:50;100731.03;;;29.56;59.52
45275;BME280;31019;43.780;25.948;2022-07-09T10:47:17;100711.28;;;30.25;42.26
45275;BME280;31019;43.780;25.948;2022-07-09T10:49:48;100716.50;;;30.64;42.97
45275;BME280;31019;43.780;25.948;2022-07-09T10:52:15;100708.13;;;31.74;45.65
45275;BME280;31019;43.780;25.948;2022-07-09T10:54:46;100716.53;;;31.65;43.39
45275;BME280;31019;43.780;25.948;2022-07-09T10:57:14;100703.81;;;31.89;43.10
45275;BME280;31019;43.780;25.948;2022-07-09T10:59:45;100700.59;;;31.43;39.98
45275;BME280;31019;43.780;25.948;2022-07-09T11:02:20;100708.38;;;30.55;48.34
45275;BME280;31019;43.780;25.948;2022-07-09T11:04:52;100699.13;;;30.47;51.71
45275;BME280;31019;43.780;25.948;2022-07-09T11:07:20;100702.78;;;30.76;43.63
45275;BME280;31019;43.780;25.948;2022-07-09T11:09:48;100702.22;;;30.70;45.86
45275;BME280;31019;43.780;25.948;2022-07-09T11:12:16;100695.03;;;30.53;41.30
45275;BME280;31019;43.780;25.948;2022-07-09T11:14:47;100682.63;;;30.80;39.28
45275;BME280;31019;43.780;25.948;2022-07-09T11:17:15;100702.97;;;30.34;51.76
45275;BME280;31019;43.780;25.948;2022-07-09T11:19:42;100698.69;;;30.70;40.16
45275;BME280;31019;43.780;25.948;2022-07-09T11:22:11;100692.06;;;30.95;41.50
45275;BME280;31019;43.780;25.948;2022-07-09T11:24:38;100698.75;;;31.47;43.17
45275;BME280;31019;43.780;25.948;2022-07-09T11:27:06;100687.94;;;31.14;39.29
45275;BME280;31019;43.780;25.948;2022-07-09T11:29:36;100690.31;;;31.40;39.28
45275;BME280;31019;43.780;25.948;2022-07-09T11:32:04;100679.00;;;31.98;39.05
45275;BME280;31019;43.780;25.948;2022-07-09T11:34:31;100681.66;;;31.01;38.91
45275;BME280;31019;43.780;25.948;2022-07-09T11:36:59;100683.38;;;30.32;40.12
45275;BME280;31019;43.780;25.948;2022-07-09T11:39:30;100687.16;;;30.06;40.45
45275;BME280;31019;43.780;25.948;2022-07-09T11:41:59;100691.28;;;29.79;45.77
45275;BME280;31019;43.780;25.948;2022-07-09T11:44:28;100685.25;;;29.44;43.49
45275;BME280;31019;43.780;25.948;2022-07-09T11:47:03;100685.53;;;29.51;53.50
45275;BME280;31019;43.780;25.948;2022-07-09T11:49:34;100682.19;;;29.87;54.77
45275;BME280;31019;43.780;25.948;2022-07-09T11:52:03;100675.97;;;30.45;46.10
45275;BME280;31019;43.780;25.948;2022-07-09T11:54:32;100676.22;;;29.73;49.31
45275;BME280;31019;43.780;25.948;2022-07-09T11:56:59;100679.41;;;29.75;45.65
45275;BME280;31019;43.780;25.948;2022-07-09T11:59:32;100670.81;;;29.98;46.18
45275;BME280;31019;43.780;25.948;2022-07-09T12:02:00;100673.91;;;29.96;44.77
45275;BME280;31019;43.780;25.948;2022-07-09T12:04:29;100675.72;;;29.71;56.26
45275;BME280;31019;43.780;25.948;2022-07-09T12:06:57;100675.88;;;30.78;50.69
45275;BME280;31019;43.780;25.948;2022-07-09T12:09:28;100672.53;;;30.02;47.08
45275;BME280;31019;43.780;25.948;2022-07-09T12:11:58;100666.78;;;30.28;43.55
45275;BME280;31019;43.780;25.948;2022-07-09T12:14:27;100666.28;;;29.69;50.23
45275;BME280;31019;43.780;25.948;2022-07-09T12:16:55;100657.25;;;29.68;47.64
45275;BME280;31019;43.780;25.948;2022-07-09T12:19:24;100652.09;;;30.70;44.61
45275;BME280;31019;43.780;25.948;2022-07-09T12:21:51;100647.72;;;31.06;40.21
45275;BME280;31019;43.780;25.948;2022-07-09T12:24:19;100651.06;;;30.62;53.22
45275;BME280;31019;43.780;25.948;2022-07-09T12:26:46;100654.66;;;30.05;48.47
45275;BME280;31019;43.780;25.948;2022-07-09T12:29:14;100647.75;;;30.56;43.47
45275;BME280;31019;43.780;25.948;2022-07-09T12:31:41;100642.34;;;31.09;41.84
45275;BME280;31019;43.780;25.948;2022-07-09T12:34:09;100636.66;;;31.02;47.89
45275;BME280;31019;43.780;25.948;2022-07-09T12:36:36;100647.41;;;30.95;49.77
45275;BME280;31019;43.780;25.948;2022-07-09T12:39:04;100638.16;;;30.99;46.42